Hua Kai — HO7805 — position and weather

sailwx.info

Track history (hours):
 
Tides and Currents Weather Stations Pressure Air Temp Water Temp Dewpoint Dewpoint Depression Visibility Wind Speed Wind Dir Waves Ship Positions

Hua Kai

Last reported at 2017-Sep-26 22:14 UTC. Time now 2017-Oct-19 03:46 UTC.
Position N 34°40' E 134°46'.
Warning: this ship's position is 22 days out of date.

Length 100 m; draft 4.2 m.

Type: Cargo ship. MMSI: 370335000.

Date/timePositionNaut miles runAvg speedWind from/ knotsBaromVisibWave heightAir tempDewpointWater temp
2017-Sep-26 22:14N 34°40' E 134°46'  
2017-Sep-24 14:40N 34°41' E 134°47'0 0.0
2017-Sep-24 14:28N 34°41' E 134°47'0 0.0
2017-Sep-24 13:58N 34°41' E 134°47'0 0.0
2017-Sep-23 23:04N 34°41' E 134°47'  
2017-Sep-18 08:32N 34°03' E 134°60'0 9.0
2017-Sep-18 08:30N 34°03' E 134°60'5 9.2
2017-Sep-18 07:57N 34°08' E 134°59'4 9.9
2017-Sep-18 07:30N 34°12' E 134°59'6 9.5
2017-Sep-18 06:53N 34°18' E 134°58'9 5.9
2017-Sep-18 05:24N 34°23' E 135°07'0 0.1
2017-Sep-18 05:00N 34°23' E 135°07'0 0.0
2017-Sep-18 04:30N 34°23' E 135°07'0 0.0
2017-Sep-18 03:54N 34°23' E 135°07'0 0.0
2017-Sep-17 04:59N 34°23' E 135°07'0 0.0
2017-Sep-17 03:52N 34°23' E 135°07'0 0.0
2017-Sep-17 03:30N 34°23' E 135°07'0 0.1
2017-Sep-17 02:58N 34°23' E 135°07'0 0.0
2017-Sep-17 02:30N 34°23' E 135°07'0 0.0
2017-Sep-17 01:58N 34°23' E 135°07'0 0.0
2017-Sep-17 01:29N 34°23' E 135°07'0 0.0
2017-Sep-17 01:00N 34°23' E 135°07'0 0.0
2017-Sep-17 00:28N 34°23' E 135°07'0 0.0
2017-Sep-16 23:58N 34°23' E 135°07'0 0.0
2017-Sep-16 23:29N 34°23' E 135°07'0 0.0
2017-Sep-16 22:58N 34°23' E 135°07'0 0.0
2017-Sep-16 22:29N 34°23' E 135°07'  
Track history (hours):
 
Tides and Currents Weather Stations Pressure Air Temp Water Temp Dewpoint Dewpoint Depression Visibility Wind Speed Wind Dir Waves Ship Positions

Hua Kai

Last reported at 2017-Sep-26 22:14 UTC. Time now 2017-Oct-19 03:46 UTC.
Position N 34°40' E 134°46'.
Warning: this ship's position is 22 days out of date.

Length 100 m; draft 4.2 m.

Type: Cargo ship. MMSI: 370335000.

Date/timePositionNaut miles runAvg speedWind from/ knotsBaromVisibWave heightAir tempDewpointWater temp
2017-Sep-26 22:14N 34°40' E 134°46'  
2017-Sep-24 14:40N 34°41' E 134°47'0 0.0
2017-Sep-24 14:28N 34°41' E 134°47'0 0.0
2017-Sep-24 13:58N 34°41' E 134°47'0 0.0
2017-Sep-23 23:04N 34°41' E 134°47'  
2017-Sep-18 08:32N 34°03' E 134°60'0 9.0
2017-Sep-18 08:30N 34°03' E 134°60'5 9.2
2017-Sep-18 07:57N 34°08' E 134°59'4 9.9
2017-Sep-18 07:30N 34°12' E 134°59'6 9.5
2017-Sep-18 06:53N 34°18' E 134°58'9 5.9
2017-Sep-18 05:24N 34°23' E 135°07'0 0.1
2017-Sep-18 05:00N 34°23' E 135°07'0 0.0
2017-Sep-18 04:30N 34°23' E 135°07'0 0.0
2017-Sep-18 03:54N 34°23' E 135°07'0 0.0
2017-Sep-17 04:59N 34°23' E 135°07'0 0.0
2017-Sep-17 03:52N 34°23' E 135°07'0 0.0
2017-Sep-17 03:30N 34°23' E 135°07'0 0.1
2017-Sep-17 02:58N 34°23' E 135°07'0 0.0
2017-Sep-17 02:30N 34°23' E 135°07'0 0.0
2017-Sep-17 01:58N 34°23' E 135°07'0 0.0
2017-Sep-17 01:29N 34°23' E 135°07'0 0.0
2017-Sep-17 01:00N 34°23' E 135°07'0 0.0
2017-Sep-17 00:28N 34°23' E 135°07'0 0.0
2017-Sep-16 23:58N 34°23' E 135°07'0 0.0
2017-Sep-16 23:29N 34°23' E 135°07'0 0.0
2017-Sep-16 22:58N 34°23' E 135°07'0 0.0
2017-Sep-16 22:29N 34°23' E 135°07'  

Dump ship's entire track history